createdAt,value
2022-10-23T00:00:43.565Z,96977.50
2022-10-23T00:03:09.970Z,96982.63
2022-10-23T00:05:40.470Z,96985.22
2022-10-23T00:08:07.275Z,96990.34
2022-10-23T00:10:33.903Z,96980.09
2022-10-23T00:13:00.315Z,96981.00
2022-10-23T00:15:27.437Z,96978.38
2022-10-23T00:17:54.157Z,96974.09
2022-10-23T00:20:21.748Z,96985.19
2022-10-23T00:22:48.117Z,96982.63
2022-10-23T00:25:16.304Z,96979.19
2022-10-23T00:27:43.298Z,96980.03
2022-10-23T00:30:10.772Z,96986.88
2022-10-23T00:32:37.444Z,96982.56
2022-10-23T00:35:04.679Z,96984.31
2022-10-23T00:37:31.041Z,96964.56
2022-10-23T00:39:57.417Z,96983.44
2022-10-23T00:42:24.106Z,96982.50
2022-10-23T00:44:50.402Z,96979.94
2022-10-23T00:47:17.314Z,96985.97
2022-10-23T00:49:44.027Z,96981.63
2022-10-23T00:52:13.140Z,96988.41
2022-10-23T00:54:43.605Z,96984.09
2022-10-23T00:57:14.724Z,96990.16
2022-10-23T00:59:42.273Z,96995.31
2022-10-23T01:02:09.140Z,96993.53
2022-10-23T01:04:36.785Z,97004.63
2022-10-23T01:07:14.352Z,97001.19
2022-10-23T01:09:55.732Z,96996.88
2022-10-23T01:12:24.799Z,96981.44
2022-10-23T01:15:16.180Z,96989.19
2022-10-23T01:17:49.727Z,96979.78
2022-10-23T01:20:39.360Z,96978.09
2022-10-23T01:23:29.054Z,96984.03
2022-10-23T01:26:20.426Z,96978.88
2022-10-23T01:28:59.524Z,96977.16
2022-10-23T01:31:42.387Z,96972.94
2022-10-23T01:34:22.044Z,96972.94
2022-10-23T01:36:51.279Z,96972.09
2022-10-23T01:39:27.645Z,96979.75
2022-10-23T01:42:03.766Z,96958.38
2022-10-23T01:44:34.915Z,96950.69
2022-10-23T01:47:03.846Z,96957.47
2022-10-23T01:49:31.747Z,96944.66
2022-10-23T01:52:03.107Z,96945.50
2022-10-23T01:54:33.746Z,96954.06
2022-10-23T01:57:00.583Z,96950.69
2022-10-23T01:59:35.218Z,96943.84
2022-10-23T02:02:04.032Z,96950.69
2022-10-23T02:04:36.255Z,96952.34
2022-10-23T02:07:02.732Z,96941.22
2022-10-23T02:09:29.153Z,96936.13
2022-10-23T02:12:03.383Z,96942.97
2022-10-23T02:14:36.369Z,96950.66
2022-10-23T02:17:16.661Z,96944.69
2022-10-23T02:19:56.214Z,96940.38
2022-10-23T02:22:28.924Z,96941.25
2022-10-23T02:25:08.969Z,96933.53
2022-10-23T02:27:39.983Z,96933.50
2022-10-23T02:30:11.324Z,96930.06
2022-10-23T02:32:42.402Z,96940.31
2022-10-23T02:35:09.318Z,96940.34
2022-10-23T02:37:35.749Z,96938.63
2022-10-23T02:40:03.896Z,96935.19
2022-10-23T02:42:47.027Z,96928.34
2022-10-23T02:45:36.253Z,96918.94
2022-10-23T02:48:29.120Z,96935.25
2022-10-23T02:51:18.691Z,96929.25
2022-10-23T02:53:51.873Z,96934.31
2022-10-23T02:56:38.498Z,96924.03
2022-10-23T02:59:18.221Z,96924.03
2022-10-23T03:01:51.710Z,96920.56
2022-10-23T03:04:21.162Z,96902.63
2022-10-23T03:06:49.218Z,96900.09
2022-10-23T03:09:15.651Z,96903.50
2022-10-23T03:11:42.026Z,96897.53
2022-10-23T03:14:09.545Z,96904.38
2022-10-23T03:16:36.401Z,96904.38
2022-10-23T03:19:02.777Z,96900.94
2022-10-23T03:21:29.166Z,96896.72
2022-10-23T03:23:55.594Z,96900.97
2022-10-23T03:26:21.974Z,96918.09
2022-10-23T03:28:48.322Z,96919.75
2022-10-23T03:31:14.696Z,96932.56
2022-10-23T03:33:41.071Z,96929.16
2022-10-23T03:36:08.019Z,96922.28
2022-10-23T03:38:34.596Z,96922.25
2022-10-23T03:41:01.004Z,96929.09
2022-10-23T03:43:27.430Z,96924.84
2022-10-23T03:45:55.382Z,96928.25
2022-10-23T03:48:24.026Z,96934.28
2022-10-23T03:50:50.595Z,96921.34
2022-10-23T03:53:17.320Z,96912.78
2022-10-23T03:55:44.650Z,96916.25
2022-10-23T03:58:11.258Z,96912.88
2022-10-23T04:00:37.635Z,96916.28
2022-10-23T04:03:04.049Z,96903.47
2022-10-23T04:05:30.353Z,96913.69
2022-10-23T04:07:57.126Z,96909.41
2022-10-23T04:10:23.467Z,96908.53
2022-10-23T04:12:49.840Z,96911.13
2022-10-23T04:15:16.223Z,96906.84
2022-10-23T04:17:42.555Z,96910.19
2022-10-23T04:20:09.526Z,96920.44
2022-10-23T04:22:35.840Z,96912.66
2022-10-23T04:25:02.205Z,96915.19
2022-10-23T04:27:28.595Z,96904.97
2022-10-23T04:29:56.898Z,96912.59
2022-10-23T04:32:25.611Z,96904.91
2022-10-23T04:34:51.998Z,96907.44
2022-10-23T04:37:18.359Z,96902.31
2022-10-23T04:39:44.704Z,96905.75
2022-10-23T04:42:11.063Z,96902.31
2022-10-23T04:44:37.447Z,96905.72
2022-10-23T04:47:03.821Z,96913.47
2022-10-23T04:49:30.223Z,96904.97
2022-10-23T04:51:56.624Z,96922.06
2022-10-23T04:54:23.003Z,96914.38
2022-10-23T04:56:49.388Z,96912.69
2022-10-23T04:59:15.872Z,96915.28
2022-10-23T05:01:42.513Z,96908.38
2022-10-23T05:04:08.962Z,96915.13
2022-10-23T05:06:35.290Z,96915.97
2022-10-23T05:09:01.631Z,96909.06
2022-10-23T05:11:27.968Z,96907.38
2022-10-23T05:13:54.407Z,96903.09
2022-10-23T05:16:32.985Z,96892.81
2022-10-23T05:19:00.186Z,96898.81
2022-10-23T05:21:31.690Z,96897.09
2022-10-23T05:26:31.841Z,96897.13
2022-10-23T05:28:58.545Z,96895.47
2022-10-23T05:31:25.602Z,96890.38
2022-10-23T05:33:54.925Z,96896.34
2022-10-23T05:36:23.799Z,96895.50
2022-10-23T05:38:50.727Z,96904.88
2022-10-23T05:41:17.623Z,96899.78
2022-10-23T05:43:44.019Z,96904.06
2022-10-23T05:46:10.350Z,96909.09
2022-10-23T05:48:36.691Z,96908.25
2022-10-23T05:51:08.215Z,96906.63
2022-10-23T05:53:36.274Z,96908.44
2022-10-23T05:56:09.150Z,96905.81
2022-10-23T05:58:35.631Z,96905.81
2022-10-23T06:01:07.056Z,96904.97
2022-10-23T06:03:33.537Z,96905.00
2022-10-23T06:06:00.905Z,96898.16
2022-10-23T06:08:27.268Z,96907.63
2022-10-23T06:10:54.446Z,96900.72
2022-10-23T06:13:20.771Z,96904.97
2022-10-23T06:15:47.295Z,96906.72
2022-10-23T06:18:14.040Z,96905.00
2022-10-23T06:20:40.953Z,96899.03
2022-10-23T06:23:08.351Z,96901.59
2022-10-23T06:25:34.686Z,96900.63
2022-10-23T06:28:01.023Z,96899.84
2022-10-23T06:30:27.488Z,96904.09
2022-10-23T06:32:53.902Z,96907.59
2022-10-23T06:35:20.268Z,96920.44
2022-10-23T06:37:46.618Z,96908.38
2022-10-23T06:40:13.139Z,96910.09
2022-10-23T06:42:39.474Z,96913.59
2022-10-23T06:45:07.222Z,96907.59
2022-10-23T06:47:33.763Z,96907.59
2022-10-23T06:50:00.314Z,96905.00
2022-10-23T06:52:45.799Z,96901.56
2022-10-23T06:55:13.003Z,96895.59
2022-10-23T06:57:39.303Z,96889.59
2022-10-23T07:00:06.392Z,96885.31
2022-10-23T07:02:32.771Z,96893.03
2022-10-23T07:04:59.213Z,96903.34
2022-10-23T07:07:25.599Z,96911.84
2022-10-23T07:09:51.981Z,96915.31
2022-10-23T07:12:18.362Z,96920.41
2022-10-23T07:14:44.723Z,96915.41
2022-10-23T07:17:11.100Z,96911.13
2022-10-23T07:19:37.495Z,96901.72
2022-10-23T07:22:04.928Z,96898.34
2022-10-23T07:24:31.878Z,96903.50
2022-10-23T07:26:58.333Z,96916.25
2022-10-23T07:29:24.727Z,96912.06
2022-10-23T07:31:51.063Z,96913.81
2022-10-23T07:34:17.511Z,96913.00
2022-10-23T07:36:43.876Z,96917.28
2022-10-23T07:39:10.275Z,96923.22
2022-10-23T07:41:36.626Z,96913.81
2022-10-23T07:44:03.312Z,96911.31
2022-10-23T07:46:29.663Z,96905.25
2022-10-23T07:48:56.079Z,96901.06
2022-10-23T07:51:22.481Z,96901.84
2022-10-23T07:53:48.918Z,96901.81
2022-10-23T07:56:20.215Z,96909.50
2022-10-23T07:58:46.591Z,96900.72
2022-10-23T08:01:19.550Z,96898.25
2022-10-23T08:03:46.568Z,96898.31
2022-10-23T08:06:12.985Z,96894.94
2022-10-23T08:08:39.439Z,96889.84
2022-10-23T08:11:06.479Z,96888.03
2022-10-23T08:13:33.417Z,96890.59
2022-10-23T08:15:59.865Z,96885.50
2022-10-23T08:18:26.199Z,96893.19
2022-10-23T08:20:52.868Z,96886.38
2022-10-23T08:23:20.148Z,96884.72
2022-10-23T08:25:47.075Z,96876.91
2022-10-23T08:28:13.511Z,96873.47
2022-10-23T08:30:40.034Z,96884.69
2022-10-23T08:33:07.187Z,96888.88
2022-10-23T08:35:38.039Z,96887.22
2022-10-23T08:38:05.598Z,96891.44
2022-10-23T08:40:35.507Z,96893.19
2022-10-23T08:43:11.579Z,96891.56
2022-10-23T08:45:44.252Z,96898.41
2022-10-23T08:48:20.530Z,96892.47
2022-10-23T08:50:53.423Z,96886.47
2022-10-23T08:53:29.481Z,96896.75
2022-10-23T08:56:12.041Z,96893.28
2022-10-23T09:01:33.105Z,96889.81
2022-10-23T09:04:00.459Z,96886.31
2022-10-23T09:06:33.901Z,96885.44
2022-10-23T09:09:09.985Z,96882.97
2022-10-23T09:11:47.267Z,96876.22
2022-10-23T09:14:40.459Z,96875.34
2022-10-23T09:17:24.502Z,96873.63
2022-10-23T09:20:00.582Z,96872.75
2022-10-23T09:22:28.727Z,96860.84
2022-10-23T09:24:55.110Z,96859.09
2022-10-23T09:27:21.585Z,96868.59
2022-10-23T09:29:54.116Z,96868.56
2022-10-23T09:32:32.729Z,96869.34
2022-10-23T09:34:59.077Z,96861.66
2022-10-23T09:37:31.078Z,96868.50
2022-10-23T09:40:15.465Z,96871.06
2022-10-23T09:42:52.308Z,96871.97
2022-10-23T09:45:44.767Z,96867.75
2022-10-23T09:48:17.677Z,96865.28
2022-10-23T09:50:51.721Z,96858.47
2022-10-23T09:53:29.498Z,96850.75
2022-10-23T09:55:59.257Z,96850.84
2022-10-23T09:58:38.531Z,96863.72
2022-10-23T10:01:05.413Z,96855.19
2022-10-23T10:03:32.434Z,96856.91
2022-10-23T10:06:02.299Z,96860.34
2022-10-23T10:08:51.693Z,96862.94
2022-10-23T10:11:27.677Z,96856.13
2022-10-23T10:14:15.196Z,96850.16
2022-10-23T10:17:14.449Z,96846.75
2022-10-23T10:20:03.747Z,96845.91
2022-10-23T10:22:57.743Z,96845.06
2022-10-23T10:25:41.992Z,96834.78
2022-10-23T10:28:17.426Z,96839.94
2022-10-23T10:31:21.328Z,96830.50
2022-10-23T10:34:04.983Z,96828.75
2022-10-23T10:36:44.138Z,96821.91
2022-10-23T10:39:31.904Z,96821.09
2022-10-23T10:42:12.768Z,96826.22
2022-10-23T10:44:57.491Z,96815.06
2022-10-23T10:47:45.319Z,96819.34
2022-10-23T10:50:14.859Z,96811.63
2022-10-23T10:53:02.410Z,96815.88
2022-10-23T10:55:35.544Z,96809.03
2022-10-23T10:58:20.302Z,96794.50
2022-10-23T11:00:53.134Z,96797.81
2022-10-23T11:03:37.601Z,96789.19
2022-10-23T11:06:16.385Z,96775.50
2022-10-23T11:08:57.563Z,96784.94
2022-10-23T11:11:35.230Z,96782.47
2022-10-23T11:14:02.084Z,96778.16
2022-10-23T11:16:36.536Z,96776.47
2022-10-23T11:19:21.192Z,96786.75
2022-10-23T11:22:18.395Z,96773.84
2022-10-23T11:25:21.492Z,96762.63
2022-10-23T11:28:11.453Z,96762.63
2022-10-23T11:30:43.835Z,96762.44
2022-10-23T11:33:25.929Z,96760.41
2022-10-23T11:36:19.747Z,96766.53
2022-10-23T11:38:50.716Z,96762.25
2022-10-23T11:41:33.811Z,96755.16
2022-10-23T11:44:03.933Z,96757.94
2022-10-23T11:46:38.658Z,96750.91
2022-10-23T11:49:19.224Z,96754.94
2022-10-23T11:51:45.834Z,96733.91
2022-10-23T11:54:13.289Z,96726.22
2022-10-23T11:57:10.726Z,96714.50
2022-10-23T11:59:49.545Z,96706.22
2022-10-23T12:02:22.805Z,96696.72
2022-10-23T12:04:52.377Z,96690.59
2022-10-23T12:07:28.907Z,96689.78
2022-10-23T12:10:03.547Z,96692.88
2022-10-23T12:12:40.649Z,96678.91
2022-10-23T12:15:18.994Z,96667.16
2022-10-23T12:17:47.235Z,96673.38
2022-10-23T12:20:13.660Z,96658.09
2022-10-23T12:22:49.029Z,96660.13
2022-10-23T12:25:39.574Z,96650.72
2022-10-23T12:28:14.063Z,96655.84
2022-10-23T12:31:14.044Z,96649.22
2022-10-23T12:34:01.131Z,96655.81
2022-10-23T12:36:37.300Z,96656.56
2022-10-23T12:39:03.692Z,96657.78
2022-10-23T12:41:33.673Z,96649.97
2022-10-23T12:44:03.251Z,96650.97
2022-10-23T12:46:31.738Z,96649.19
2022-10-23T12:48:59.888Z,96651.09
2022-10-23T12:51:36.740Z,96653.56
2022-10-23T12:54:04.054Z,96638.06
2022-10-23T12:56:38.890Z,96628.13
2022-10-23T12:59:15.014Z,96628.94
2022-10-23T13:01:43.435Z,96629.38
2022-10-23T13:04:31.889Z,96605.06
2022-10-23T13:07:03.058Z,96591.16
2022-10-23T13:09:42.165Z,96587.78
2022-10-23T13:12:18.528Z,96594.72
2022-10-23T13:15:03.301Z,96604.50
2022-10-23T13:17:37.730Z,96593.19
2022-10-23T13:20:10.309Z,96590.84
2022-10-23T13:22:36.937Z,96594.00
2022-10-23T13:25:04.331Z,96585.06
2022-10-23T13:27:30.624Z,96588.75
2022-10-23T13:29:57.026Z,96591.59
2022-10-23T13:32:25.409Z,96599.94
2022-10-23T13:35:03.931Z,96602.66
2022-10-23T13:37:30.769Z,96590.56
2022-10-23T13:40:01.252Z,96594.19
2022-10-23T13:42:27.773Z,96588.88
2022-10-23T13:44:54.527Z,96592.56
2022-10-23T13:47:21.391Z,96587.94
2022-10-23T13:49:47.849Z,96582.63
2022-10-23T13:52:19.271Z,96580.41
2022-10-23T13:54:45.706Z,96583.56
2022-10-23T13:57:14.656Z,96579.41
2022-10-23T13:59:41.679Z,96579.53
2022-10-23T14:02:19.692Z,96578.78
2022-10-23T14:04:47.165Z,96577.63
2022-10-23T14:07:13.544Z,96579.44
2022-10-23T14:09:40.128Z,96582.03
2022-10-23T14:12:06.614Z,96588.50
2022-10-23T14:14:33.852Z,96586.75
2022-10-23T14:17:00.325Z,96582.19
2022-10-23T14:19:26.762Z,96583.94
2022-10-23T14:21:53.191Z,96582.66
2022-10-23T14:24:19.537Z,96584.59
2022-10-23T14:26:45.989Z,96577.91
2022-10-23T14:29:21.367Z,96580.94
2022-10-23T14:31:49.541Z,96577.59
2022-10-23T14:34:16.562Z,96579.59
2022-10-23T14:36:49.959Z,96583.66
2022-10-23T14:39:17.863Z,96587.06
2022-10-23T14:41:44.455Z,96579.59
2022-10-23T14:44:10.914Z,96576.88
2022-10-23T14:46:38.231Z,96571.06
2022-10-23T14:49:04.700Z,96568.44
2022-10-23T14:51:31.091Z,96558.22
2022-10-23T14:54:07.473Z,96559.22
2022-10-23T14:56:37.553Z,96562.78
2022-10-23T14:59:04.728Z,96556.06
2022-10-23T15:01:33.204Z,96557.03
2022-10-23T15:03:59.734Z,96551.81
2022-10-23T15:06:26.548Z,96556.06
2022-10-23T15:08:56.842Z,96553.59
2022-10-23T15:11:24.548Z,96545.97
2022-10-23T15:13:51.299Z,96551.22
2022-10-23T15:16:18.180Z,96549.56
2022-10-23T15:18:44.538Z,96547.00
2022-10-23T15:21:11.183Z,96541.88
2022-10-23T15:23:40.020Z,96532.50
2022-10-23T15:26:09.219Z,96529.13
2022-10-23T15:28:35.625Z,96528.94
2022-10-23T15:31:02.095Z,96530.72
2022-10-23T15:33:28.705Z,96528.09
2022-10-23T15:35:55.360Z,96533.19
2022-10-23T15:38:22.577Z,96523.69
2022-10-23T15:40:49.391Z,96529.81
2022-10-23T15:43:16.249Z,96537.69
2022-10-23T15:45:43.195Z,96535.19
2022-10-23T15:48:10.807Z,96523.38
2022-10-23T15:50:37.535Z,96528.56
2022-10-23T15:53:04.077Z,96519.38
2022-10-23T15:55:30.581Z,96522.88
2022-10-23T15:58:01.798Z,96522.13
2022-10-23T16:00:28.319Z,96533.34
2022-10-23T16:02:54.770Z,96517.78
2022-10-23T16:05:21.303Z,96526.41
2022-10-23T16:07:47.735Z,96527.97
2022-10-23T16:10:14.209Z,96517.03
2022-10-23T16:12:40.747Z,96506.97
2022-10-23T16:15:08.199Z,96505.97
2022-10-23T16:17:34.693Z,96513.75
2022-10-23T16:20:01.127Z,96504.34
2022-10-23T16:22:27.774Z,96504.41
2022-10-23T16:24:54.336Z,96506.03
2022-10-23T16:27:20.779Z,96507.84
2022-10-23T16:29:47.297Z,96509.50
2022-10-23T16:32:13.636Z,96511.09
2022-10-23T16:34:40.155Z,96505.09
2022-10-23T16:37:06.758Z,96511.09
2022-10-23T16:39:33.122Z,96523.16
2022-10-23T16:41:59.442Z,96519.66
2022-10-23T16:44:25.956Z,96523.03
2022-10-23T16:46:52.493Z,96516.16
2022-10-23T16:49:20.006Z,96512.06
2022-10-23T16:51:46.501Z,96519.81
2022-10-23T16:54:14.556Z,96517.22
2022-10-23T16:56:41.019Z,96513.00
2022-10-23T16:59:07.400Z,96508.78
2022-10-23T17:01:33.930Z,96511.53
2022-10-23T17:04:00.402Z,96519.25
2022-10-23T17:06:29.562Z,96516.75
2022-10-23T17:08:56.792Z,96528.63
2022-10-23T17:11:32.159Z,96520.91
2022-10-23T17:14:01.767Z,96519.19
2022-10-23T17:16:34.885Z,96521.84
2022-10-23T17:19:03.132Z,96524.34
2022-10-23T17:21:36.088Z,96532.88
2022-10-23T17:26:34.455Z,96529.63
2022-10-23T17:29:02.360Z,96526.28
2022-10-23T17:31:31.843Z,96513.44
2022-10-23T17:34:06.342Z,96510.81
2022-10-23T17:36:36.993Z,96506.53
2022-10-23T17:39:07.463Z,96503.25
2022-10-23T17:41:34.768Z,96504.91
2022-10-23T17:44:01.285Z,96492.81
2022-10-23T17:46:29.177Z,96487.66
2022-10-23T17:49:00.248Z,96491.06
2022-10-23T17:51:28.829Z,96496.88
2022-10-23T17:53:57.352Z,96504.66
2022-10-23T17:56:26.614Z,96496.88
2022-10-23T17:58:55.720Z,96504.66
2022-10-23T18:01:25.905Z,96506.53
2022-10-23T18:03:55.251Z,96509.91
2022-10-23T18:06:28.786Z,96508.19
2022-10-23T18:08:58.438Z,96513.34
2022-10-23T18:11:28.296Z,96511.69
2022-10-23T18:13:57.400Z,96509.13
2022-10-23T18:16:23.917Z,96504.84
2022-10-23T18:18:53.506Z,96502.31
2022-10-23T18:21:22.650Z,96511.78
2022-10-23T18:23:49.760Z,96509.25
2022-10-23T18:26:22.108Z,96504.03
2022-10-23T18:28:50.827Z,96502.31
2022-10-23T18:31:18.227Z,96507.47
2022-10-23T18:33:45.888Z,96535.75
2022-10-23T18:36:26.621Z,96538.25
2022-10-23T18:38:53.147Z,96536.53
2022-10-23T18:41:20.248Z,96540.06
2022-10-23T18:43:46.676Z,96543.47
2022-10-23T18:46:14.257Z,96535.72
2022-10-23T18:48:42.296Z,96547.72
2022-10-23T18:51:20.726Z,96530.59
2022-10-23T18:53:47.707Z,96535.75
2022-10-23T18:56:16.312Z,96531.38
2022-10-23T18:58:42.718Z,96516.75
2022-10-23T19:01:09.254Z,96487.63
2022-10-23T19:03:36.728Z,96479.03
2022-10-23T19:06:06.842Z,96473.81
2022-10-23T19:08:37.261Z,96457.66
2022-10-23T19:11:06.485Z,96472.19
2022-10-23T19:13:38.913Z,96466.31
2022-10-23T19:16:15.675Z,96464.50
2022-10-23T19:18:50.098Z,96464.66
2022-10-23T19:21:20.566Z,96470.63
2022-10-23T19:23:48.922Z,96454.47
2022-10-23T19:26:16.015Z,96450.06
2022-10-23T19:28:45.769Z,96456.09
2022-10-23T19:31:12.844Z,96452.66
2022-10-23T19:33:39.529Z,96445.78
2022-10-23T19:36:11.080Z,96439.84
2022-10-23T19:38:40.711Z,96441.63
2022-10-23T19:41:07.491Z,96431.53
2022-10-23T19:43:34.137Z,96435.69
2022-10-23T19:46:04.963Z,96441.72
2022-10-23T19:48:34.394Z,96458.09
2022-10-23T19:51:01.004Z,96457.94
2022-10-23T19:53:27.348Z,96461.41
2022-10-23T19:56:05.382Z,96466.63
2022-10-23T19:58:32.047Z,96482.97
2022-10-23T20:00:58.550Z,96488.94
2022-10-23T20:03:24.952Z,96476.06
2022-10-23T20:05:51.415Z,96488.91
2022-10-23T20:08:18.027Z,96500.16
2022-10-23T20:10:46.461Z,96500.94
2022-10-23T20:13:19.995Z,96508.72
2022-10-23T20:15:47.865Z,96508.72
2022-10-23T20:18:15.354Z,96520.75
2022-10-23T20:20:42.395Z,96522.44
2022-10-23T20:23:09.239Z,96526.72
2022-10-23T20:25:35.770Z,96528.47
2022-10-23T20:28:02.349Z,96527.63
2022-10-23T20:30:28.867Z,96543.88
2022-10-23T20:32:56.033Z,96538.81
2022-10-23T20:35:22.362Z,96542.22
2022-10-23T20:37:48.698Z,96546.50
2022-10-23T20:40:15.195Z,96542.38
2022-10-23T20:42:41.640Z,96543.16
2022-10-23T20:45:08.520Z,96544.81
2022-10-23T20:47:34.859Z,96556.03
2022-10-23T20:50:01.240Z,96570.56
2022-10-23T20:52:29.971Z,96560.25
2022-10-23T20:54:56.470Z,96568.06
2022-10-23T20:57:22.833Z,96568.06
2022-10-23T20:59:49.223Z,96568.88
2022-10-23T21:02:15.681Z,96564.56
2022-10-23T21:04:42.190Z,96556.81
2022-10-23T21:07:10.329Z,96574.94
2022-10-23T21:09:38.432Z,96574.91
2022-10-23T21:12:06.349Z,96574.00
2022-10-23T21:14:32.834Z,96586.94
2022-10-23T21:16:59.307Z,96588.72
2022-10-23T21:19:25.742Z,96596.44
2022-10-23T21:21:52.489Z,96593.06
2022-10-23T21:24:18.898Z,96593.00
2022-10-23T21:26:45.776Z,96589.66
2022-10-23T21:29:20.838Z,96598.22
2022-10-23T21:31:58.613Z,96582.75
2022-10-23T21:34:26.186Z,96583.63
2022-10-23T21:37:13.511Z,96591.34
2022-10-23T21:39:39.219Z,96601.59
2022-10-23T21:42:05.890Z,96595.59
2022-10-23T21:44:32.370Z,96608.50
2022-10-23T21:46:58.746Z,96618.81
2022-10-23T21:49:25.083Z,96625.72
2022-10-23T21:51:51.582Z,96623.16
2022-10-23T21:54:17.920Z,96638.63
2022-10-23T21:56:47.711Z,96647.19
2022-10-23T21:59:16.733Z,96642.09
2022-10-23T22:01:46.197Z,96661.84
2022-10-23T22:04:14.761Z,96661.00
2022-10-23T22:06:42.052Z,96655.03
2022-10-23T22:09:11.321Z,96651.63
2022-10-23T22:11:37.950Z,96651.59
2022-10-23T22:14:04.340Z,96649.06
2022-10-23T22:16:30.819Z,96647.25
2022-10-23T22:18:57.295Z,96632.66
2022-10-23T22:21:26.519Z,96625.03
2022-10-23T22:23:57.492Z,96622.41
2022-10-23T22:26:30.070Z,96631.91
2022-10-23T22:28:59.520Z,96636.19
2022-10-23T22:31:30.643Z,96640.53
2022-10-23T22:33:57.982Z,96637.09
2022-10-23T22:36:25.521Z,96638.81
2022-10-23T22:38:52.464Z,96648.25
2022-10-23T22:41:19.004Z,96657.69
2022-10-23T22:43:45.383Z,96663.72
2022-10-23T22:46:18.927Z,96673.09
2022-10-23T22:48:45.829Z,96678.25
2022-10-23T22:51:15.314Z,96680.00
2022-10-23T22:53:42.829Z,96692.06
2022-10-23T22:56:15.304Z,96692.97
2022-10-23T22:58:41.675Z,96679.19
2022-10-23T23:01:17.058Z,96689.53
2022-10-23T23:03:44.077Z,96710.97
2022-10-23T23:06:11.369Z,96699.03
2022-10-23T23:08:39.466Z,96717.00
2022-10-23T23:11:07.846Z,96713.63
2022-10-23T23:13:34.643Z,96727.31
2022-10-23T23:16:02.027Z,96726.50
2022-10-23T23:18:29.259Z,96740.22
2022-10-23T23:21:00.679Z,96739.38
2022-10-23T23:23:27.044Z,96732.53
2022-10-23T23:25:53.388Z,96736.00
2022-10-23T23:28:20.953Z,96742.84
2022-10-23T23:30:48.374Z,96752.28
2022-10-23T23:33:16.581Z,96746.31
2022-10-23T23:35:44.978Z,96743.75
2022-10-23T23:38:12.685Z,96740.31
2022-10-23T23:40:40.266Z,96747.19
2022-10-23T23:43:06.942Z,96737.75
2022-10-23T23:45:33.427Z,96751.50
2022-10-23T23:47:59.767Z,96740.38
2022-10-23T23:50:27.850Z,96747.25
2022-10-23T23:52:54.322Z,96754.09
2022-10-23T23:55:20.692Z,96757.53
2022-10-23T23:57:47.261Z,96763.53
